ESOE/ORB METAR and TAF weather

Enter ICAO airport designator
Station Type Date Time Source
ESOE METAR 2020/08/11 18:50 UTC NOAA

ESOE 111850Z 12004KT CAVOK 22/09 Q1025


Station Type Date Time Source
ESOE Decoded METAR 2020/08/11 18:50 UTC NOAA

Orebro Private , Sweden (ESOE) 59-14N 015-03E
Aug 11, 2020 - 02:50 PM EDT / 2020.08.11 1850 UTC
Wind: from the ESE (120 degrees) at 5 MPH (4 KT):0
Visibility: greater than 7 mile(s):0
Temperature: 71 F (22 C)
Dew Point: 48 F (9 C)
Relative Humidity: 43%
Pressure (altimeter): 30.27 in. Hg (1025 hPa)
ob: ESOE 111850Z 12004KT CAVOK 22/09 Q1025
cycle: 19

Station Type Date Time Source
ESOE TAF 2016/03/16 04:36 UTC NOAA

TAF TAF ESOE 160330Z 1604/1624 23005KT 9000 BR NSC PROB40 1604/1607 1200 BR

Example: see airport list